• Join FlightAware (Why Join?)
  • Login
  • US Flag 
07:33AM EST


 

Airport Tracker/Info


-or-


 

Live Flight TrackerFlight Track Log ✈ VOZ735 ✈ 26-Aug-2013 ✈ YMML / MEL - YBCG / OOL

Flight Track Log - Related Links

Times and Time Zones

All times are in EDT time to prevent confusion due to time zone crossing. See the VOZ735 flight status page for this flight to view local times or setup timezone preferences in your user account.

Time Position Orientation Groundspeed Altitude Reporting Facility
EDT Latitude Longitude Course Direction KTS MPH feet Rate Location/Type
08:21PM -37.6600 144.8180 270° West 155 178 600  Level FlightAware
08:22PM -37.6590 144.7940 273° West 164 189 1,600 1,860 Climbing FlightAware
08:22PM -37.6570 144.7730 277° West 197 227 2,000 1,500 Climbing FlightAware
08:22PM -37.6560 144.7480 273° West 225 259 2,600 2,220 Climbing FlightAware
08:23PM -37.6540 144.7210 275° West 236 272 3,500 2,880 Climbing FlightAware
08:23PM -37.6530 144.7150 282° West 237 273 3,800 3,180 Climbing FlightAware
08:23PM -37.6470 144.7010 298° West 242 278 4,300 3,000 Climbing FlightAware
08:23PM -37.6390 144.6910 315° West 251 289 4,800 3,180 Climbing FlightAware
08:23PM -37.6340 144.6870 328° Northwest 255 293 5,100 3,000 Climbing FlightAware
08:24PM -37.6160 144.6790 341° North 272 313 5,800 2,880 Climbing FlightAware
08:24PM -37.5920 144.6690 342° North 278 320 6,800 3,240 Climbing FlightAware
08:24PM -37.5750 144.6620 342° North 278 320 7,700 3,420 Climbing FlightAware
08:24PM -37.5480 144.6550 348° North 285 328 8,800 3,120 Climbing FlightAware
08:25PM -37.5220 144.6650 17° North 304 350 9,800 2,880 Climbing FlightAware
08:25PM -37.5160 144.6700 33° Northeast 307 353 10,000 1,980 Climbing FlightAware
08:26PM -37.4760 144.7230 46° Northeast 338 389 11,300 2,220 Climbing FlightAware
08:26PM -37.4450 144.7650 47° Northeast 358 412 12,600 3,060 Climbing FlightAware
08:27PM -37.4051 144.8162 47° Northeast 364 419 14,400 3,060 Climbing Aus ATC (RADAR)
08:27PM -37.4030 144.8190 47° Northeast 370 426 14,400 2,520 Level FlightAware
08:27PM -37.3610 144.8750 47° Northeast 383 441 16,100 3,240 Climbing FlightAware
08:28PM -37.3139 144.9366 47° Northeast 389 448 18,200 3,060 Climbing Aus ATC (RADAR)
08:28PM -37.3150 144.9360 47° Northeast 391 450 17,900 2,220 Descending FlightAware
08:28PM -37.2710 144.9930 46° Northeast 400 460 19,500 2,940 Climbing FlightAware
08:29PM -37.2308 145.0453 46° Northeast 406 467 21,100 2,520 Climbing Aus ATC (RADAR)
08:29PM -37.2250 145.0530 46° Northeast 412 474 21,000 1,920 Descending FlightAware
08:30PM -37.1780 145.1140 46° Northeast 420 483 22,400 2,280 Climbing FlightAware
08:30PM -37.1310 145.1760 46° Northeast 431 496 23,700 2,100 Climbing FlightAware
08:31PM -37.0830 145.2380 46° Northeast 440 506 24,900 1,980 Climbing FlightAware
08:31PM -37.0200 145.3050 40° Northeast 445 512 26,200 1,800 Climbing FlightAware
08:32PM -36.9710 145.3560 40° Northeast 452 520 27,000 1,920 Climbing FlightAware
08:32PM -36.9136 145.4146 40° Northeast 455 524 28,300 1,680 Climbing Aus ATC (RADAR)
08:32PM -36.9140 145.4150 40° Northeast 459 528 28,000 1,020 Descending FlightAware
08:33PM -36.8480 145.4830 40° Northeast 471 542 29,000 1,440 Climbing FlightAware
08:34PM -36.7970 145.5350 39° Northeast 480 552 29,700 1,260 Climbing FlightAware
08:34PM -36.7360 145.5980 40° Northeast 490 564 30,400 1,320 Climbing FlightAware
08:35PM -36.6750 145.6590 39° Northeast 496 571 31,300 1,500 Climbing FlightAware
08:35PM -36.6040 145.7320 40° Northeast 501 577 32,300 1,320 Climbing FlightAware
08:36PM -36.5490 145.7880 39° Northeast 506 582 32,900 1,200 Climbing FlightAware
08:37PM -36.4920 145.8460 39° Northeast 510 587 33,600 1,080 Climbing FlightAware
08:37PM -36.4110 145.9280 39° Northeast 517 595 34,300 900 Climbing FlightAware
08:38PM -36.3560 145.9840 39° Northeast 524 603 34,700 780 Climbing FlightAware
08:38PM -36.2890 146.0520 39° Northeast 533 613 35,200 840 Climbing FlightAware
08:39PM -36.2120 146.1290 39° Northeast 538 619 35,800 900 Climbing FlightAware
08:39PM -36.1550 146.1870 39° Northeast 540 621 36,300 1,080 Climbing FlightAware
08:40PM -36.0860 146.2560 39° Northeast 540 621 37,000 1,260 Climbing FlightAware
08:41PM -36.0090 146.3330 39° Northeast 533 613 37,900 1,320 Climbing FlightAware
08:41PM -35.9520 146.3900 39° Northeast 528 608 38,600 960 Climbing FlightAware
08:42PM -35.8880 146.4540 39° Northeast 527 606 39,000 300 Climbing FlightAware
08:42PM -35.8190 146.5220 39° Northeast 529 609 39,000  Level FlightAware
08:43PM -35.7570 146.5840 39° Northeast 529 609 39,000  Level FlightAware
08:44PM -35.6890 146.6510 39° Northeast 530 610 39,000  Level FlightAware
08:44PM -35.6210 146.7170 38° Northeast 531 611 39,000  Level FlightAware
08:45PM -35.5500 146.7870 39° Northeast 525 604 39,000  Level FlightAware
08:45PM -35.4830 146.8540 39° Northeast 533 613 39,000  Level FlightAware
08:46PM -35.4160 146.9190 38° Northeast 533 613 39,000  Level FlightAware
08:47PM -35.3480 146.9860 39° Northeast 534 615 39,000  Level FlightAware
08:47PM -35.2820 147.0510 39° Northeast 534 615 39,000  Level FlightAware
08:48PM -35.2130 147.1180 38° Northeast 534 615 39,000  Level FlightAware
08:48PM -35.1470 147.1810 38° Northeast 533 613 39,000  Level FlightAware
08:49PM -35.0780 147.2490 39° Northeast 534 615 39,000  Level FlightAware
08:49PM -35.0110 147.3140 38° Northeast 534 615 39,000  Level FlightAware
08:50PM -34.9420 147.3800 38° Northeast 533 613 39,000  Level FlightAware
08:51PM -34.8750 147.4440 38° Northeast 531 611 39,000  Level FlightAware
08:51PM -34.8170 147.5000 38° Northeast 530 610 39,000  Level FlightAware
08:52PM -34.7390 147.5750 38° Northeast 529 609 39,000  Level FlightAware
08:52PM -34.6720 147.6390 38° Northeast 529 609 39,000  Level FlightAware
08:53PM -34.6050 147.7040 39° Northeast 521 600 39,000  Level FlightAware
08:54PM -34.5390 147.7670 38° Northeast 519 597 39,000  Level FlightAware
08:54PM -34.4710 147.8310 38° Northeast 519 597 39,000  Level FlightAware
08:55PM -34.4050 147.8930 38° Northeast 517 595 39,000  Level FlightAware
08:55PM -34.3380 147.9560 38° Northeast 517 595 39,000 480 Level FlightAware
08:55PM -34.3332 147.9612 38° Northeast 520 598 39,300  Climbing Aus ATC (RADAR)
08:56PM -34.2720 148.0190 38° Northeast 515 593 39,000  Descending FlightAware
08:56PM -34.2666 148.0242 38° Northeast 519 597 39,300  Climbing Aus ATC (RADAR)
08:56PM -34.2040 148.0830 38° Northeast 516 594 39,000 -300 Descending FlightAware
08:57PM -34.1380 148.1450 38° Northeast 516 594 39,000  Level FlightAware
08:58PM -34.0710 148.2090 38° Northeast 517 595 39,000 240 Level FlightAware
08:58PM -34.0094 148.2657 38° Northeast 519 597 39,300  Climbing Aus ATC (RADAR)
08:58PM -34.0050 148.2710 38° Northeast 517 595 39,000 -480 Descending FlightAware
08:59PM -33.9380 148.3330 38° Northeast 518 596 39,000  Level FlightAware
08:59PM -33.8710 148.3960 38° Northeast 525 604 39,000  Level FlightAware
09:00PM -33.8030 148.4590 38° Northeast 526 605 39,000  Level FlightAware
09:00PM -33.7360 148.5210 38° Northeast 526 605 39,000  Level FlightAware
09:01PM -33.6590 148.5930 38° Northeast 528 608 39,000 360 Level FlightAware
09:01PM -33.6493 148.6011 38° Northeast 526 605 39,300  Climbing Aus ATC (RADAR)
09:02PM -33.5880 148.6590 38° Northeast 528 608 39,000 -300 Descending FlightAware
09:02PM -33.5210 148.7200 37° Northeast 526 605 39,000  Level FlightAware
09:03PM -33.4530 148.7830 38° Northeast 526 605 39,000 240 Level FlightAware
09:03PM -33.3943 148.8366 38° Northeast 521 600 39,300  Climbing Aus ATC (RADAR)
09:04PM -33.3910 148.8400 38° Northeast 526 605 39,000 -480 Descending FlightAware
09:04PM -33.3180 148.9070 37° Northeast 526 605 39,000  Level FlightAware
09:05PM -33.2490 148.9700 37° Northeast 525 604 39,000  Level FlightAware
09:05PM -33.1830 149.0310 38° Northeast 524 603 39,000  Level FlightAware
09:06PM -33.1210 149.0870 38° Northeast 525 604 39,000 480 Level FlightAware
09:06PM -33.1150 149.0925 38° Northeast 521 600 39,300  Climbing Aus ATC (RADAR)
09:06PM -33.0480 149.1540 38° Northeast 524 603 39,000  Descending FlightAware
09:06PM -33.0477 149.1534 38° Northeast 518 596 39,300  Climbing Aus ATC (RADAR)
09:07PM -32.9790 149.2160 37° Northeast 523 602 39,000 -300 Descending FlightAware
09:08PM -32.9210 149.2690 37° Northeast 523 602 39,000  Level FlightAware
09:08PM -32.8470 149.3360 37° Northeast 523 602 39,000  Level FlightAware
09:09PM -32.7770 149.3990 37° Northeast 523 602 39,000  Level FlightAware
09:09PM -32.7110 149.4590 37° Northeast 524 603 39,000  Level FlightAware
09:10PM -32.6440 149.5190 37° Northeast 525 604 39,000 180 Level FlightAware
09:11PM -32.5470 149.6057 37° Northeast 518 596 39,300  Climbing Aus ATC (RADAR)
09:11PM -32.5460 149.6070 37° Northeast 524 603 39,000 -540 Descending FlightAware
09:11PM -32.4780 149.6650 36° Northeast 515 593 39,000  Level FlightAware
09:12PM -32.4070 149.7230 35° Northeast 515 593 39,000  Level FlightAware
09:13PM -32.3400 149.7790 35° Northeast 514 592 39,000 480 Level FlightAware
09:13PM -32.3342 149.7836 35° Northeast 521 600 39,300  Climbing Aus ATC (RADAR)
09:13PM -32.2720 149.8360 35° Northeast 513 590 39,000  Descending FlightAware
09:13PM -32.2657 149.8414 35° Northeast 519 597 39,300  Climbing Aus ATC (RADAR)
09:14PM -32.2040 149.8930 35° Northeast 518 596 39,000 -300 Descending FlightAware
09:14PM -32.1290 149.9560 35° Northeast 517 595 39,000 420 Level FlightAware
09:14PM -32.1252 149.9592 35° Northeast 512 589 39,300  Climbing Aus ATC (RADAR)
09:15PM -32.0600 150.0140 35° Northeast 516 594 39,000 -300 Descending FlightAware
09:15PM -31.9910 150.0710 35° Northeast 515 593 39,000  Level FlightAware
09:16PM -31.9320 150.1200 35° Northeast 515 593 39,000  Level FlightAware
09:17PM -31.8570 150.1820 35° Northeast 515 593 39,000 240 Level FlightAware
09:17PM -31.7886 150.2388 35° Northeast 515 593 39,300  Climbing Aus ATC (RADAR)
09:17PM -31.7810 150.2450 35° Northeast 515 593 39,000  Descending FlightAware
09:18PM -31.7166 150.2973 35° Northeast 507 583 39,300  Climbing Aus ATC (RADAR)
09:18PM -31.7190 150.2960 35° Northeast 513 590 39,000 -420 Descending FlightAware
09:19PM -31.6540 150.3490 35° Northeast 513 590 39,000  Level FlightAware
09:19PM -31.5710 150.4180 35° Northeast 512 589 39,000 540 Level FlightAware
09:19PM -31.5713 150.4171 35° Northeast 504 580 39,300  Climbing Aus ATC (RADAR)
09:20PM -31.5030 150.4740 35° Northeast 513 590 39,000 -300 Descending FlightAware
09:20PM -31.4360 150.5290 35° Northeast 514 592 39,000  Level FlightAware
09:21PM -31.3590 150.5920 35° Northeast 514 592 39,000 240 Level FlightAware
09:21PM -31.2931 150.6450 35° Northeast 514 592 39,300  Climbing Aus ATC (RADAR)
09:21PM -31.2890 150.6490 35° Northeast 514 592 39,000  Descending FlightAware
09:22PM -31.2205 150.7040 35° Northeast 506 582 39,300  Climbing Aus ATC (RADAR)
09:22PM -31.2050 150.7180 35° Northeast 514 592 39,000 -420 Descending FlightAware
09:23PM -31.1240 150.7830 34° Northeast 509 586 39,000  Level FlightAware
09:24PM -31.0560 150.8380 35° Northeast 509 586 39,000  Level FlightAware
09:24PM -30.9970 150.8860 35° Northeast 509 586 39,000  Level FlightAware
09:25PM -30.9370 150.9360 36° Northeast 509 586 39,000  Level FlightAware
09:25PM -30.8780 150.9840 35° Northeast 509 586 39,000  Level FlightAware
09:26PM -30.8190 151.0320 35° Northeast 509 586 39,000  Level FlightAware
09:27PM -30.7500 151.2160 66° East 528 608 39,000  Level FlightAware
09:27PM -30.6960 151.2800 46° Northeast 528 608 39,000 240 Level FlightAware
09:28PM -30.6261 151.3639 46° Northeast 515 593 39,300  Climbing Aus ATC (RADAR)
09:28PM -30.6430 151.3440 46° Northeast 528 608 39,000  Descending FlightAware
09:28PM -30.5662 151.4355 46° Northeast 518 596 39,300  Climbing Aus ATC (RADAR)
09:29PM -30.5540 151.4520 46° Northeast 531 611 39,000  Descending FlightAware
09:29PM -30.4855 151.5336 46° Northeast 531 611 39,300  Climbing Aus ATC (RADAR)
09:29PM -30.5020 151.5150 46° Northeast 531 611 39,000 -480 Descending FlightAware
09:30PM -30.4490 151.5780 46° Northeast 531 611 39,000  Level FlightAware
09:30PM -30.3740 151.6690 46° Northeast 534 615 39,000  Level FlightAware
09:31PM -30.3090 151.7470 46° Northeast 534 615 39,000 240 Level FlightAware
09:31PM -30.2538 151.8105 46° Northeast 535 616 39,300  Climbing Aus ATC (RADAR)
09:31PM -30.2480 151.8200 46° Northeast 535 616 39,000 -420 Descending FlightAware
09:32PM -30.1780 151.9020 45° Northeast 534 615 39,000  Level FlightAware
09:33PM -30.1180 151.9740 46° Northeast 534 615 39,000  Level FlightAware
09:33PM -30.0400 152.0670 46° Northeast 533 613 39,000 -120 Level FlightAware
09:34PM -29.9790 152.1380 45° Northeast 533 613 38,900 -600 Descending FlightAware
09:35PM -29.9200 152.2080 46° Northeast 531 611 38,300 -1,080 Descending FlightAware
09:35PM -29.8600 152.2790 46° Northeast 531 611 37,700 -960 Descending FlightAware
09:36PM -29.7980 152.3510 45° Northeast 538 619 37,200 -1,080 Descending FlightAware
09:36PM -29.7390 152.4220 46° Northeast 539 620 36,500 -1,680 Descending FlightAware
09:37PM -29.6773 152.4949 46° Northeast 537 618 35,300 -2,760 Descending Aus ATC (RADAR)
09:37PM -29.6780 152.4930 46° Northeast 541 623 34,900 -2,100 Descending FlightAware
09:38PM -29.6165 152.5660 46° Northeast 534 615 34,100 -1,920 Descending Aus ATC (RADAR)
09:38PM -29.6170 152.5650 46° Northeast 529 609 33,800 -3,480 Descending FlightAware
09:38PM -29.5580 152.6340 45° Northeast 530 610 32,100 -2,520 Descending FlightAware
09:39PM -29.4880 152.7150 45° Northeast 512 589 30,700 -2,400 Descending FlightAware
09:39PM -29.4310 152.7830 46° Northeast 502 578 29,100 -3,000 Descending FlightAware
09:40PM -29.3750 152.8460 44° Northeast 498 573 27,200 -3,060 Descending FlightAware
09:41PM -29.3090 152.9230 46° Northeast 484 557 25,300 -2,580 Descending FlightAware
09:41PM -29.2630 152.9770 46° Northeast 463 533 24,200 -1,500 Descending FlightAware
09:41PM -29.2610 152.9793 46° Northeast 455 524 24,500 -3,120 Climbing Aus ATC (RADAR)
09:42PM -29.2110 153.0370 45° Northeast 456 525 22,400 -3,420 Descending FlightAware
09:42PM -29.1620 153.0930 45° Northeast 446 513 20,700 -2,760 Descending FlightAware
09:43PM -29.1110 153.1520 45° Northeast 431 496 19,200 -2,520 Descending FlightAware
09:43PM -29.0610 153.2100 45° Northeast 416 479 17,800 -1,980 Descending FlightAware
09:44PM -29.0090 153.2700 45° Northeast 389 448 16,700 -1,920 Descending FlightAware
09:45PM -28.9650 153.3200 45° Northeast 372 428 15,400 -2,220 Descending FlightAware
09:45PM -28.9180 153.3740 45° Northeast 364 419 14,000 -2,160 Descending FlightAware
09:46PM -28.8760 153.4220 45° Northeast 357 411 12,800 -1,980 Descending FlightAware
09:46PM -28.8400 153.4600 43° Northeast 349 402 11,900 -1,920 Descending FlightAware
09:47PM -28.8130 153.4770 29° Northeast 344 396 11,200 -2,280 Descending FlightAware
09:47PM -28.7670 153.4970 21° North 345 397 10,000 -1,920 Descending FlightAware
09:48PM -28.7450 153.5070 22° Northeast 335 386 9,800 -540 Descending FlightAware
09:48PM -28.7190 153.5180 20° North 315 362 9,700 -720 Descending FlightAware
09:48PM -28.6880 153.5320 22° Northeast 303 349 9,300 -1,380 Descending FlightAware
09:49PM -28.6590 153.5450 21° North 299 344 8,700 -1,620 Descending FlightAware
09:49PM -28.6290 153.5580 21° North 298 343 8,100 -960 Descending FlightAware
09:50PM -28.5810 153.5790 21° North 295 339 7,700 -1,320 Descending FlightAware
09:50PM -28.5268 153.6038 21° North 286 329 6,400 -1,380 Descending Aus ATC (RADAR)
09:50PM -28.5350 153.6000 21° North 286 329 6,800 -2,220 Climbing FlightAware
09:51PM -28.5010 153.6130 19° North 274 315 5,600 -1,500 Descending FlightAware
09:51PM -28.4720 153.6240 18° North 274 315 5,500 -840 Descending FlightAware
09:52PM -28.4112 153.6476 18° North 269 310 4,600 -960 Descending Aus ATC (RADAR)
09:53PM -28.3599 153.6310 344° North 237 273 4,100 -780 Descending Aus ATC (RADAR)
09:53PM -28.3199 153.6054 331° Northwest 219 252 3,400 -1,380 Descending Aus ATC (RADAR)
09:54PM -28.3160 153.6020 331° Northwest 3,000 -2,820 Descending FlightAware
09:54PM -28.3090 153.5980 333° Northwest 210 242 2,800 -1,440 Descending FlightAware
09:54PM -28.2880 153.5850 331° Northwest 200 230 2,300 -1,080 Descending FlightAware
09:54PM -28.2730 153.5750 330° Northwest 187 215 2,000 -900 Descending FlightAware
09:55PM -28.2590 153.5650 328° Northwest 171 197 1,700 -900 Descending FlightAware
09:55PM -28.2460 153.5570 332° Northwest 158 182 1,400 -780 Descending FlightAware
09:56PM -28.2310 153.5470 330° Northwest 148 170 1,100 -420 Descending FlightAware
09:56PM -28.2130 153.5360 332° Northwest 146 168 1,000 -660 Descending FlightAware
09:57PM -28.1856 153.5196 332° Northwest 142 163 300 -1,020 Descending Aus ATC (RADAR)